Terminal Aerodrome Forecast
Issued by NWS Grand Forks, ND

Home | Current Version | Previous Version | Text Only | Print | Product List | Glossary On
Versions: 1 2 3 4 5 6 7 8 9 10 11 12 13 14 15 16
000
FTUS43 KFGF 200522 AAA
TAFFAR
TAF AMD
KFAR 200522Z 2005/2106 VRB03KT P6SM FEW250
     FM201000 17007KT P6SM SCT250
     FM201600 20010KT P6SM SCT250
     FM202300 27013G22KT P6SM SCT200
     FM210200 30016G26KT P6SM FEW200=

USA.gov is the U.S. government's official web portal to all federal, state and local government web resources and services.